Terminal Aerodrome Forecast
Issued by NWS Shreveport, LA

Home | Current Version | Previous Version | Text Only | Print | Product List | Glossary On
Versions: 1 2 3 4 5 6 7 8 9 10 11 12 13 14
000
FTUS44 KSHV 291100
TAFGGG
TAF
KGGG 291121Z 2912/3012 04006KT P6SM BKN120 BKN250
     FM291500 05006KT P6SM SCT120 SCT250
     FM300000 09005KT P6SM SCT250
     FM300600 11004KT P6SM BKN250=

USA.gov is the U.S. government's official web portal to all federal, state and local government web resources and services.